createdAt,value
2023-01-26T00:00:05.806Z,100805.75
2023-01-26T00:00:41.629Z,100814.47
2023-01-26T00:01:16.978Z,100812.56
2023-01-26T00:01:52.659Z,100810.66
2023-01-26T00:02:28.277Z,100810.97
2023-01-26T00:03:04.606Z,100815.81
2023-01-26T00:03:40.789Z,100812.25
2023-01-26T00:04:16.790Z,100811.44
2023-01-26T00:04:52.542Z,100811.16
2023-01-26T00:05:28.522Z,100807.59
2023-01-26T00:06:04.452Z,100809.25
2023-01-26T00:06:40.346Z,100797.53
2023-01-26T00:07:16.027Z,100810.06
2023-01-26T00:07:52.341Z,100805.16
2023-01-26T00:08:27.779Z,100795.94
2023-01-26T00:09:03.268Z,100799.22
2023-01-26T00:09:38.771Z,100798.97
2023-01-26T00:10:14.834Z,100798.69
2023-01-26T00:10:50.844Z,100798.66
2023-01-26T00:11:27.174Z,100796.75
2023-01-26T00:12:02.668Z,100802.75
2023-01-26T00:12:38.994Z,100797.31
2023-01-26T00:13:14.322Z,100800.84
2023-01-26T00:13:49.429Z,100799.72
2023-01-26T00:14:25.555Z,100802.50
2023-01-26T00:15:01.187Z,100804.13
2023-01-26T00:15:37.324Z,100799.22
2023-01-26T00:16:13.352Z,100801.66
2023-01-26T00:16:49.477Z,100797.88
2023-01-26T00:17:25.520Z,100804.69
2023-01-26T00:18:01.440Z,100801.16
2023-01-26T00:18:37.148Z,100795.38
2023-01-26T00:19:12.735Z,100799.22
2023-01-26T00:19:48.953Z,100795.63
2023-01-26T00:20:24.983Z,100799.69
2023-01-26T00:21:01.198Z,100793.44
2023-01-26T00:21:37.101Z,100791.81
2023-01-26T00:22:12.916Z,100790.22
2023-01-26T00:22:48.932Z,100787.19
2023-01-26T00:23:24.917Z,100788.84
2023-01-26T00:24:00.653Z,100789.91
2023-01-26T00:24:36.044Z,100787.19
2023-01-26T00:25:12.001Z,100784.47
2023-01-26T00:25:47.621Z,100783.41
2023-01-26T00:26:23.385Z,100785.31
2023-01-26T00:26:59.035Z,100787.47
2023-01-26T00:27:35.167Z,100791.31
2023-01-26T00:28:11.642Z,100787.19
2023-01-26T00:28:47.958Z,100781.19
2023-01-26T00:29:23.938Z,100783.41
2023-01-26T00:29:59.302Z,100783.13
2023-01-26T00:30:40.311Z,100784.22
2023-01-26T00:31:15.825Z,100779.59
2023-01-26T00:31:52.273Z,100780.66
2023-01-26T00:32:27.695Z,100775.22
2023-01-26T00:33:03.782Z,100780.97
2023-01-26T00:33:40.103Z,100777.72
2023-01-26T00:34:16.257Z,100769.53
2023-01-26T00:34:51.754Z,100775.81
2023-01-26T00:35:26.658Z,100767.63
2023-01-26T00:36:02.989Z,100763.25
2023-01-26T00:36:39.148Z,100772.50
2023-01-26T00:37:14.710Z,100770.31
2023-01-26T00:37:50.414Z,100773.31
2023-01-26T00:38:26.700Z,100764.38
2023-01-26T00:39:02.365Z,100767.91
2023-01-26T00:39:38.610Z,100759.19
2023-01-26T00:40:14.160Z,100763.28
2023-01-26T00:40:49.207Z,100759.22
2023-01-26T00:41:25.761Z,100757.84
2023-01-26T00:42:01.526Z,100757.28
2023-01-26T00:42:37.145Z,100759.47
2023-01-26T00:43:13.196Z,100756.19
2023-01-26T00:43:48.520Z,100760.53
2023-01-26T00:44:23.853Z,100752.09
2023-01-26T00:45:00.007Z,100753.75
2023-01-26T00:45:40.234Z,100756.97
2023-01-26T00:46:16.167Z,100759.41
2023-01-26T00:46:52.137Z,100754.78
2023-01-26T00:47:27.961Z,100759.41
2023-01-26T00:48:03.734Z,100753.44
2023-01-26T00:48:39.601Z,100747.44
2023-01-26T00:49:15.378Z,100751.78
2023-01-26T00:49:51.867Z,100743.59
2023-01-26T00:50:27.815Z,100745.75
2023-01-26T00:51:04.038Z,100744.16
2023-01-26T00:51:39.484Z,100732.75
2023-01-26T00:52:15.483Z,100738.19
2023-01-26T00:52:51.039Z,100735.47
2023-01-26T00:53:26.711Z,100725.94
2023-01-26T00:54:02.512Z,100735.22
2023-01-26T00:54:37.992Z,100730.59
2023-01-26T00:55:14.158Z,100733.59
2023-01-26T00:55:49.869Z,100728.69
2023-01-26T00:56:26.004Z,100729.78
2023-01-26T00:57:02.076Z,100729.53
2023-01-26T00:57:37.702Z,100728.16
2023-01-26T00:58:13.769Z,100724.06
2023-01-26T00:58:50.271Z,100726.00
2023-01-26T00:59:25.815Z,100726.25
2023-01-26T01:00:01.110Z,100729.81
2023-01-26T01:00:37.650Z,100715.38
2023-01-26T01:01:13.434Z,100723.25
2023-01-26T01:01:49.588Z,100718.63
2023-01-26T01:02:25.425Z,100725.16
2023-01-26T01:03:01.771Z,100719.44
2023-01-26T01:03:38.123Z,100722.16
2023-01-26T01:04:14.086Z,100712.91
2023-01-26T01:04:49.787Z,100711.56
2023-01-26T01:05:24.975Z,100710.47
2023-01-26T01:06:00.866Z,100705.81
2023-01-26T01:06:37.215Z,100706.94
2023-01-26T01:07:13.266Z,100702.88
2023-01-26T01:07:49.494Z,100704.78
2023-01-26T01:08:25.303Z,100701.22
2023-01-26T01:09:00.717Z,100702.03
2023-01-26T01:09:36.571Z,100705.59
2023-01-26T01:10:12.524Z,100699.59
2023-01-26T01:10:47.648Z,100712.13
2023-01-26T01:11:23.356Z,100700.41
2023-01-26T01:11:59.130Z,100703.94
2023-01-26T01:12:35.232Z,100696.34
2023-01-26T01:13:11.002Z,100702.59
2023-01-26T01:13:46.674Z,100712.13
2023-01-26T01:14:22.239Z,100718.34
2023-01-26T01:14:57.673Z,100710.19
2023-01-26T01:15:33.831Z,100711.81
2023-01-26T01:16:09.712Z,100713.19
2023-01-26T01:16:45.678Z,100703.94
2023-01-26T01:17:21.625Z,100710.47
2023-01-26T01:17:57.484Z,100696.59
2023-01-26T01:18:33.392Z,100709.41
2023-01-26T01:19:08.887Z,100708.84
2023-01-26T01:19:44.002Z,100708.81
2023-01-26T01:20:19.905Z,100699.84
2023-01-26T01:20:56.128Z,100697.94
2023-01-26T01:21:32.228Z,100710.44
2023-01-26T01:22:08.037Z,100693.84
2023-01-26T01:22:43.633Z,100696.31
2023-01-26T01:23:19.658Z,100707.19
2023-01-26T01:23:55.437Z,100708.81
2023-01-26T01:24:31.324Z,100706.38
2023-01-26T01:25:06.360Z,100694.13
2023-01-26T01:25:42.620Z,100698.50
2023-01-26T01:26:18.655Z,100699.59
2023-01-26T01:26:54.083Z,100691.69
2023-01-26T01:27:30.714Z,100693.84
2023-01-26T01:28:06.848Z,100705.56
2023-01-26T01:28:42.658Z,100701.22
2023-01-26T01:29:18.036Z,100694.97
2023-01-26T01:29:53.988Z,100701.22
2023-01-26T01:30:30.639Z,100699.03
2023-01-26T01:31:06.086Z,100701.50
2023-01-26T01:31:42.324Z,100703.91
2023-01-26T01:32:18.383Z,100708.03
2023-01-26T01:32:53.903Z,100706.13
2023-01-26T01:33:30.009Z,100701.22
2023-01-26T01:34:05.429Z,100695.78
2023-01-26T01:34:40.506Z,100696.59
2023-01-26T01:35:16.359Z,100701.78
2023-01-26T01:35:52.770Z,100697.41
2023-01-26T01:36:28.667Z,100702.84
2023-01-26T01:37:04.422Z,100706.91
2023-01-26T01:37:40.331Z,100706.91
2023-01-26T01:38:17.138Z,100706.88
2023-01-26T01:38:53.581Z,100701.47
2023-01-26T01:39:29.025Z,100702.03
2023-01-26T01:40:05.179Z,100692.50
2023-01-26T01:40:41.022Z,100694.13
2023-01-26T01:41:16.991Z,100695.78
2023-01-26T01:41:52.650Z,100694.69
2023-01-26T01:42:28.654Z,100694.44
2023-01-26T01:43:04.902Z,100699.31
2023-01-26T01:43:40.898Z,100695.78
2023-01-26T01:44:16.446Z,100691.69
2023-01-26T01:44:51.604Z,100695.22
2023-01-26T01:45:27.901Z,100693.59
2023-01-26T01:46:03.669Z,100697.91
2023-01-26T01:46:39.625Z,100700.38
2023-01-26T01:47:15.108Z,100682.44
2023-01-26T01:47:51.087Z,100698.25
2023-01-26T01:48:27.482Z,100693.59
2023-01-26T01:49:03.022Z,100693.88
2023-01-26T01:49:38.024Z,100697.41
2023-01-26T01:50:14.242Z,100690.63
2023-01-26T01:50:50.228Z,100687.91
2023-01-26T01:51:25.848Z,100692.22
2023-01-26T01:52:02.127Z,100690.31
2023-01-26T01:52:37.944Z,100685.13
2023-01-26T01:53:13.915Z,100683.78
2023-01-26T01:53:49.450Z,100691.66
2023-01-26T01:54:25.511Z,100682.69
2023-01-26T01:55:01.113Z,100684.88
2023-01-26T01:55:36.520Z,100686.78
2023-01-26T01:56:12.748Z,100679.97
2023-01-26T01:56:48.327Z,100684.59
2023-01-26T01:57:24.726Z,100693.31
2023-01-26T01:58:00.660Z,100682.13
2023-01-26T01:58:36.587Z,100685.97
2023-01-26T01:59:12.486Z,100677.78
2023-01-26T01:59:48.508Z,100683.50
2023-01-26T02:00:23.853Z,100683.25
2023-01-26T02:00:59.588Z,100684.88
2023-01-26T02:01:35.662Z,100682.13
2023-01-26T02:02:11.718Z,100684.59
2023-01-26T02:02:47.793Z,100676.16
2023-01-26T02:03:23.917Z,100676.16
2023-01-26T02:03:59.799Z,100672.63
2023-01-26T02:04:35.853Z,100669.06
2023-01-26T02:05:11.643Z,100675.84
2023-01-26T02:05:47.366Z,100673.94
2023-01-26T02:06:24.014Z,100675.88
2023-01-26T02:06:59.763Z,100675.34
2023-01-26T02:07:35.753Z,100664.72
2023-01-26T02:08:11.583Z,100664.72
2023-01-26T02:08:47.313Z,100660.09
2023-01-26T02:09:23.221Z,100664.72
2023-01-26T02:09:58.997Z,100666.09
2023-01-26T02:10:34.841Z,100661.72
2023-01-26T02:11:10.388Z,100664.19
2023-01-26T02:11:46.183Z,100659.56
2023-01-26T02:12:22.048Z,100655.19
2023-01-26T02:12:57.498Z,100659.56
2023-01-26T02:13:33.671Z,100657.66
2023-01-26T02:14:09.068Z,100658.47
2023-01-26T02:14:44.530Z,100656.56
2023-01-26T02:15:20.663Z,100660.63
2023-01-26T02:15:56.536Z,100663.91
2023-01-26T02:16:32.316Z,100659.56
2023-01-26T02:17:08.605Z,100663.09
2023-01-26T02:17:44.746Z,100659.03
2023-01-26T02:18:20.857Z,100659.28
2023-01-26T02:18:56.621Z,100658.75
2023-01-26T02:19:32.260Z,100663.38
2023-01-26T02:20:08.567Z,100660.09
2023-01-26T02:20:44.501Z,100657.34
2023-01-26T02:21:19.946Z,100652.19
2023-01-26T02:21:55.875Z,100653.56
2023-01-26T02:22:32.221Z,100648.94
2023-01-26T02:23:08.049Z,100650.56
2023-01-26T02:23:44.114Z,100654.34
2023-01-26T02:24:20.140Z,100653.25
2023-01-26T02:24:55.577Z,100653.25
2023-01-26T02:25:30.986Z,100651.66
2023-01-26T02:26:07.269Z,100653.81
2023-01-26T02:26:43.443Z,100653.56
2023-01-26T02:27:19.364Z,100654.09
2023-01-26T02:27:54.988Z,100652.19
2023-01-26T02:28:31.404Z,100647.84
2023-01-26T02:29:06.967Z,100654.91
2023-01-26T02:29:42.659Z,100645.13
2023-01-26T02:30:18.299Z,100650.28
2023-01-26T02:30:54.617Z,100643.75
2023-01-26T02:31:30.760Z,100645.94
2023-01-26T02:32:06.224Z,100643.22
2023-01-26T02:32:42.081Z,100641.56
2023-01-26T02:33:18.813Z,100639.66
2023-01-26T02:33:55.381Z,100644.56
2023-01-26T02:34:31.350Z,100638.03
2023-01-26T02:35:06.939Z,100639.38
2023-01-26T02:35:42.498Z,100634.75
2023-01-26T02:36:18.126Z,100642.94
2023-01-26T02:36:54.003Z,100637.75
2023-01-26T02:37:30.153Z,100629.59
2023-01-26T02:38:06.124Z,100639.66
2023-01-26T02:38:41.805Z,100636.94
2023-01-26T02:39:17.733Z,100634.78
2023-01-26T02:39:54.005Z,100632.88
2023-01-26T02:40:29.229Z,100645.13
2023-01-26T02:41:04.497Z,100637.75
2023-01-26T02:41:40.749Z,100642.38
2023-01-26T02:42:16.853Z,100636.94
2023-01-26T02:42:52.649Z,100637.75
2023-01-26T02:43:29.108Z,100638.81
2023-01-26T02:44:05.127Z,100637.72
2023-01-26T02:44:40.982Z,100641.56
2023-01-26T02:45:16.938Z,100634.47
2023-01-26T02:45:52.731Z,100640.19
2023-01-26T02:46:28.535Z,100642.09
2023-01-26T02:47:04.536Z,100647.28
2023-01-26T02:47:40.259Z,100642.41
2023-01-26T02:48:15.766Z,100642.13
2023-01-26T02:48:52.120Z,100644.84
2023-01-26T02:49:27.964Z,100640.22
2023-01-26T02:50:03.539Z,100637.50
2023-01-26T02:50:39.824Z,100635.56
2023-01-26T02:51:15.521Z,100633.66
2023-01-26T02:51:50.867Z,100629.56
2023-01-26T02:52:26.803Z,100630.41
2023-01-26T02:53:02.571Z,100626.84
2023-01-26T02:53:38.480Z,100636.63
2023-01-26T02:54:14.182Z,100638.81
2023-01-26T02:54:49.552Z,100638.53
2023-01-26T02:55:25.723Z,100633.09
2023-01-26T02:56:01.697Z,100638.28
2023-01-26T02:56:37.251Z,100639.13
2023-01-26T02:57:13.470Z,100639.13
2023-01-26T02:57:49.602Z,100639.63
2023-01-26T02:58:25.515Z,100643.97
2023-01-26T02:59:01.049Z,100636.91
2023-01-26T02:59:36.167Z,100638.81
2023-01-26T03:00:12.721Z,100641.28
2023-01-26T03:00:49.072Z,100642.06
2023-01-26T03:01:24.985Z,100638.53
2023-01-26T03:02:00.898Z,100650.50
2023-01-26T03:02:36.835Z,100639.59
2023-01-26T03:03:12.922Z,100643.72
2023-01-26T03:03:48.233Z,100640.19
2023-01-26T03:04:23.646Z,100636.91
2023-01-26T03:04:59.738Z,100638.81
2023-01-26T03:05:35.698Z,100644.25
2023-01-26T03:06:12.111Z,100634.72
2023-01-26T03:06:48.119Z,100633.06
2023-01-26T03:07:23.854Z,100637.72
2023-01-26T03:08:00.240Z,100634.16
2023-01-26T03:08:36.526Z,100635.28
2023-01-26T03:09:12.042Z,100635.81
2023-01-26T03:09:47.518Z,100628.75
2023-01-26T03:10:23.198Z,100626.00
2023-01-26T03:10:59.568Z,100631.72
2023-01-26T03:11:35.945Z,100625.47
2023-01-26T03:12:12.054Z,100623.28
2023-01-26T03:12:47.597Z,100621.13
2023-01-26T03:13:23.646Z,100630.09
2023-01-26T03:13:59.579Z,100626.28
2023-01-26T03:14:34.494Z,100626.56
2023-01-26T03:15:10.832Z,100623.03
2023-01-26T03:15:46.616Z,100630.34
2023-01-26T03:16:21.922Z,100626.53
2023-01-26T03:16:58.365Z,100631.44
2023-01-26T03:17:34.253Z,100627.06
2023-01-26T03:18:10.676Z,100627.06
2023-01-26T03:18:46.216Z,100628.44
2023-01-26T03:19:21.847Z,100621.38
2023-01-26T03:19:57.746Z,100628.19
2023-01-26T03:20:33.790Z,100627.91
2023-01-26T03:21:09.690Z,100628.22
2023-01-26T03:21:45.715Z,100623.84
2023-01-26T03:22:21.686Z,100626.31
2023-01-26T03:22:58.045Z,100625.75
2023-01-26T03:23:33.954Z,100625.72
2023-01-26T03:24:09.864Z,100630.91
2023-01-26T03:24:45.524Z,100626.00
2023-01-26T03:25:20.682Z,100625.19
2023-01-26T03:25:56.742Z,100620.56
2023-01-26T03:26:33.394Z,100627.38
2023-01-26T03:27:09.307Z,100635.28
2023-01-26T03:27:45.325Z,100629.53
2023-01-26T03:28:21.220Z,100631.44
2023-01-26T03:28:57.176Z,100635.00
2023-01-26T03:29:32.921Z,100628.75
2023-01-26T03:30:08.808Z,100628.22
2023-01-26T03:30:44.567Z,100625.22
2023-01-26T03:31:20.363Z,100624.09
2023-01-26T03:31:56.688Z,100626.31
2023-01-26T03:32:32.806Z,100621.66
2023-01-26T03:33:08.576Z,100633.66
2023-01-26T03:33:44.113Z,100631.16
2023-01-26T03:34:20.075Z,100633.91
2023-01-26T03:34:55.833Z,100624.09
2023-01-26T03:35:31.184Z,100630.06
2023-01-26T03:36:07.176Z,100630.34
2023-01-26T03:36:43.024Z,100632.00
2023-01-26T03:37:18.984Z,100628.97
2023-01-26T03:37:54.767Z,100630.88
2023-01-26T03:38:30.650Z,100634.97
2023-01-26T03:39:06.278Z,100638.53
2023-01-26T03:39:42.004Z,100632.53
2023-01-26T03:40:17.392Z,100640.44
2023-01-26T03:40:52.799Z,100630.63
2023-01-26T03:41:29.013Z,100630.06
2023-01-26T03:42:05.191Z,100629.81
2023-01-26T03:42:40.713Z,100629.81
2023-01-26T03:43:17.020Z,100630.38
2023-01-26T03:43:52.828Z,100630.66
2023-01-26T03:44:28.353Z,100633.63
2023-01-26T03:45:05.829Z,100634.72
2023-01-26T03:45:41.621Z,100630.09
2023-01-26T03:46:17.690Z,100623.56
2023-01-26T03:46:53.356Z,100622.47
2023-01-26T03:47:29.615Z,100626.53
2023-01-26T03:48:05.685Z,100625.19
2023-01-26T03:48:41.381Z,100632.53
2023-01-26T03:49:18.076Z,100630.34
2023-01-26T03:49:53.352Z,100630.63
2023-01-26T03:50:28.955Z,100634.75
2023-01-26T03:51:04.918Z,100629.28
2023-01-26T03:51:40.974Z,100632.53
2023-01-26T03:52:17.081Z,100623.28
2023-01-26T03:52:52.723Z,100626.03
2023-01-26T03:53:29.055Z,100626.53
2023-01-26T03:54:05.327Z,100637.16
2023-01-26T03:54:41.010Z,100634.72
2023-01-26T03:55:16.727Z,100630.63
2023-01-26T03:55:52.361Z,100630.94
2023-01-26T03:56:28.078Z,100627.13
2023-01-26T03:57:03.998Z,100629.28
2023-01-26T03:57:39.682Z,100628.75
2023-01-26T03:58:15.990Z,100622.50
2023-01-26T03:58:51.748Z,100628.75
2023-01-26T03:59:27.462Z,100624.66
2023-01-26T04:00:03.961Z,100621.66
2023-01-26T04:00:39.640Z,100624.09
2023-01-26T04:01:14.871Z,100625.72
2023-01-26T04:01:51.111Z,100622.47
2023-01-26T04:02:27.180Z,100624.66
2023-01-26T04:03:02.953Z,100625.47
2023-01-26T04:03:38.863Z,100626.84
2023-01-26T04:04:14.987Z,100632.00
2023-01-26T04:04:51.835Z,100629.56
2023-01-26T04:05:27.651Z,100632.28
2023-01-26T04:06:15.765Z,100627.91
2023-01-26T04:06:51.242Z,100625.47
2023-01-26T04:07:27.271Z,100623.88
2023-01-26T04:08:03.270Z,100632.00
2023-01-26T04:08:39.259Z,100630.09
2023-01-26T04:09:15.671Z,100632.56
2023-01-26T04:09:51.675Z,100632.56
2023-01-26T04:10:27.092Z,100629.03
2023-01-26T04:11:03.103Z,100632.81
2023-01-26T04:11:38.958Z,100618.13
2023-01-26T04:12:14.410Z,100636.34
2023-01-26T04:12:49.874Z,100628.44
2023-01-26T04:13:26.109Z,100632.81
2023-01-26T04:14:02.028Z,100630.09
2023-01-26T04:14:49.469Z,100623.28
2023-01-26T04:15:25.893Z,100631.72
2023-01-26T04:16:02.004Z,100625.75
2023-01-26T04:16:37.953Z,100627.09
2023-01-26T04:17:13.623Z,100624.38
2023-01-26T04:17:49.139Z,100627.66
2023-01-26T04:18:25.020Z,100624.13
2023-01-26T04:19:00.876Z,100622.50
2023-01-26T04:19:36.466Z,100627.94
2023-01-26T04:20:13.014Z,100622.75
2023-01-26T04:20:48.747Z,100631.47
2023-01-26T04:21:24.582Z,100628.22
2023-01-26T04:22:00.327Z,100623.03
2023-01-26T04:22:36.515Z,100628.75
2023-01-26T04:23:12.027Z,100625.75
2023-01-26T04:23:47.866Z,100623.81
2023-01-26T04:24:24.138Z,100623.81
2023-01-26T04:24:59.872Z,100632.00
2023-01-26T04:25:35.570Z,100631.19
2023-01-26T04:26:11.320Z,100620.59
2023-01-26T04:26:47.822Z,100630.38
2023-01-26T04:27:23.785Z,100629.03
2023-01-26T04:27:59.616Z,100626.56
2023-01-26T04:28:35.118Z,100626.84
2023-01-26T04:29:10.858Z,100632.28
2023-01-26T04:29:46.509Z,100634.75
2023-01-26T04:30:22.016Z,100631.47
2023-01-26T04:30:57.465Z,100626.03
2023-01-26T04:31:33.453Z,100626.03
2023-01-26T04:32:09.660Z,100629.84
2023-01-26T04:32:45.445Z,100626.28
2023-01-26T04:33:21.097Z,100623.28
2023-01-26T04:33:57.370Z,100623.00
2023-01-26T04:34:33.296Z,100620.81
2023-01-26T04:35:08.887Z,100633.59
2023-01-26T04:35:44.045Z,100626.53
2023-01-26T04:36:19.635Z,100629.53
2023-01-26T04:36:55.536Z,100629.53
2023-01-26T04:37:31.299Z,100629.00
2023-01-26T04:38:07.477Z,100620.53
2023-01-26T04:38:43.416Z,100625.72
2023-01-26T04:39:19.621Z,100627.91
2023-01-26T04:39:55.559Z,100623.00
2023-01-26T04:40:31.059Z,100626.53
2023-01-26T04:41:06.167Z,100620.00
2023-01-26T04:41:42.637Z,100612.66
2023-01-26T04:42:18.365Z,100622.47
2023-01-26T04:42:54.137Z,100622.47
2023-01-26T04:43:30.367Z,100615.91
2023-01-26T04:44:05.965Z,100621.38
2023-01-26T04:44:42.143Z,100620.31
2023-01-26T04:45:17.610Z,100626.59
2023-01-26T04:45:53.589Z,100626.56
2023-01-26T04:46:29.286Z,100621.13
2023-01-26T04:47:05.253Z,100622.22
2023-01-26T04:47:41.202Z,100617.88
2023-01-26T04:48:16.935Z,100617.84
2023-01-26T04:48:52.505Z,100618.41
2023-01-26T04:49:28.582Z,100622.22
2023-01-26T04:50:04.400Z,100620.06
2023-01-26T04:50:40.075Z,100625.78
2023-01-26T04:51:15.637Z,100617.06
2023-01-26T04:51:50.713Z,100614.06
2023-01-26T04:52:26.946Z,100618.69
2023-01-26T04:53:02.808Z,100620.34
2023-01-26T04:53:38.941Z,100621.69
2023-01-26T04:54:14.985Z,100620.06
2023-01-26T04:54:50.949Z,100614.59
2023-01-26T04:55:26.710Z,100619.53
2023-01-26T04:56:02.750Z,100615.44
2023-01-26T04:56:38.820Z,100615.41
2023-01-26T04:57:14.238Z,100617.56
2023-01-26T04:57:50.300Z,100614.56
2023-01-26T04:58:26.340Z,100618.13
2023-01-26T04:59:02.072Z,100611.31
2023-01-26T04:59:38.441Z,100620.31
2023-01-26T05:00:14.298Z,100621.41
2023-01-26T05:00:50.273Z,100615.44
2023-01-26T05:01:25.842Z,100623.06
2023-01-26T05:02:01.778Z,100616.78
2023-01-26T05:02:37.258Z,100622.50
2023-01-26T05:03:13.039Z,100623.88
2023-01-26T05:03:48.853Z,100616.25
2023-01-26T05:04:24.863Z,100616.78
2023-01-26T05:05:00.955Z,100616.50
2023-01-26T05:05:36.935Z,100619.78
2023-01-26T05:06:13.319Z,100615.44
2023-01-26T05:06:49.308Z,100620.88
2023-01-26T05:07:25.160Z,100612.69
2023-01-26T05:08:00.707Z,100611.34
2023-01-26T05:08:36.542Z,100612.97
2023-01-26T05:09:12.985Z,100608.06
2023-01-26T05:09:48.567Z,100605.91
2023-01-26T05:10:24.919Z,100600.19
2023-01-26T05:11:01.306Z,100607.53
2023-01-26T05:11:37.945Z,100604.81
2023-01-26T05:12:13.611Z,100609.44
2023-01-26T05:12:49.520Z,100603.19
2023-01-26T05:13:24.715Z,100609.72
2023-01-26T05:14:00.933Z,100607.81
2023-01-26T05:14:37.278Z,100605.63
2023-01-26T05:15:13.291Z,100608.59
2023-01-26T05:15:48.993Z,100608.88
2023-01-26T05:16:24.605Z,100612.44
2023-01-26T05:17:01.790Z,100606.44
2023-01-26T05:17:37.205Z,100613.53
2023-01-26T05:18:12.752Z,100610.78
2023-01-26T05:18:47.783Z,100610.50
2023-01-26T05:19:23.838Z,100611.34
2023-01-26T05:19:59.744Z,100602.34
2023-01-26T05:20:35.563Z,100607.25
2023-01-26T05:21:11.664Z,100605.91
2023-01-26T05:21:47.335Z,100607.00
2023-01-26T05:22:23.216Z,100604.81
2023-01-26T05:22:59.407Z,100608.63
2023-01-26T05:23:34.823Z,100611.91
2023-01-26T05:24:10.097Z,100613.28
2023-01-26T05:24:46.228Z,100615.19
2023-01-26T05:25:22.110Z,100612.97
2023-01-26T05:25:57.908Z,100615.13
2023-01-26T05:26:33.734Z,100610.25
2023-01-26T05:27:09.153Z,100614.03
2023-01-26T05:27:45.299Z,100612.41
2023-01-26T05:28:21.089Z,100617.59
2023-01-26T05:28:56.408Z,100611.88
2023-01-26T05:29:31.669Z,100609.41
2023-01-26T05:30:07.953Z,100612.13
2023-01-26T05:30:43.386Z,100615.13
2023-01-26T05:31:19.867Z,100608.34
2023-01-26T05:31:55.816Z,100608.06
2023-01-26T05:32:32.015Z,100616.50
2023-01-26T05:33:08.007Z,100614.59
2023-01-26T05:33:43.481Z,100612.69
2023-01-26T05:34:19.486Z,100607.25
2023-01-26T05:34:54.825Z,100611.34
2023-01-26T05:35:31.223Z,100602.91
2023-01-26T05:36:07.426Z,100607.78
2023-01-26T05:36:42.882Z,100614.06
2023-01-26T05:37:18.690Z,100608.88
2023-01-26T05:37:55.096Z,100614.31
2023-01-26T05:38:30.737Z,100618.41
2023-01-26T05:39:07.217Z,100620.56
2023-01-26T05:39:42.216Z,100619.78
2023-01-26T05:40:17.631Z,100621.13
2023-01-26T05:40:53.690Z,100618.13
2023-01-26T05:41:29.697Z,100620.59
2023-01-26T05:42:05.399Z,100626.31
2023-01-26T05:42:41.839Z,100626.06
2023-01-26T05:43:17.558Z,100623.31
2023-01-26T05:43:53.470Z,100627.69
2023-01-26T05:44:29.741Z,100632.06
2023-01-26T05:45:06.388Z,100627.97
2023-01-26T05:45:41.334Z,100630.41
2023-01-26T05:46:16.980Z,100626.06
2023-01-26T05:46:52.914Z,100624.69
2023-01-26T05:47:29.422Z,100629.84
2023-01-26T05:48:05.215Z,100620.59
2023-01-26T05:48:41.474Z,100623.03
2023-01-26T05:49:17.736Z,100630.66
2023-01-26T05:49:53.585Z,100622.78
2023-01-26T05:50:29.655Z,100617.31
2023-01-26T05:51:05.553Z,100620.03
2023-01-26T05:51:40.851Z,100620.59
2023-01-26T05:52:16.657Z,100619.25
2023-01-26T05:52:52.796Z,100618.41
2023-01-26T05:53:28.852Z,100621.69
2023-01-26T05:54:04.766Z,100618.16
2023-01-26T05:54:40.381Z,100616.78
2023-01-26T05:55:16.137Z,100621.66
2023-01-26T05:55:51.707Z,100628.22
2023-01-26T05:56:27.177Z,100629.28
2023-01-26T05:57:03.367Z,100624.66
2023-01-26T05:57:39.374Z,100623.56
2023-01-26T05:58:15.557Z,100621.94
2023-01-26T05:58:51.475Z,100632.00
2023-01-26T05:59:26.887Z,100624.41
2023-01-26T06:00:04.722Z,100627.38
2023-01-26T06:00:41.343Z,100621.66
2023-01-26T06:01:16.865Z,100628.75
2023-01-26T06:01:52.538Z,100624.94
2023-01-26T06:02:28.671Z,100627.13
2023-01-26T06:03:04.651Z,100634.19
2023-01-26T06:03:40.253Z,100632.28
2023-01-26T06:04:16.389Z,100626.53
2023-01-26T06:04:52.684Z,100624.66
2023-01-26T06:05:28.459Z,100629.28
2023-01-26T06:06:04.290Z,100631.47
2023-01-26T06:06:40.169Z,100629.56
2023-01-26T06:07:15.001Z,100638.28
2023-01-26T06:07:50.701Z,100632.53
2023-01-26T06:08:26.558Z,100628.75
2023-01-26T06:09:02.347Z,100633.66
2023-01-26T06:09:38.378Z,100634.19
2023-01-26T06:10:14.346Z,100625.50
2023-01-26T06:10:50.047Z,100629.03
2023-01-26T06:11:26.043Z,100629.03
2023-01-26T06:12:01.828Z,100632.84
2023-01-26T06:12:37.546Z,100634.50
2023-01-26T06:13:13.213Z,100629.03
2023-01-26T06:13:49.088Z,100628.75
2023-01-26T06:14:25.488Z,100633.63
2023-01-26T06:15:01.546Z,100635.81
2023-01-26T06:15:38.271Z,100633.38
2023-01-26T06:16:14.218Z,100635.28
2023-01-26T06:16:50.065Z,100633.13
2023-01-26T06:17:25.608Z,100629.28
2023-01-26T06:18:00.819Z,100631.72
2023-01-26T06:18:36.661Z,100633.38
2023-01-26T06:19:12.952Z,100628.75
2023-01-26T06:19:49.032Z,100631.72
2023-01-26T06:20:24.836Z,100627.91
2023-01-26T06:21:00.818Z,100632.56
2023-01-26T06:21:36.837Z,100633.13
2023-01-26T06:22:12.530Z,100632.84
2023-01-26T06:22:48.538Z,100633.66
2023-01-26T06:23:23.492Z,100633.13
2023-01-26T06:23:59.441Z,100632.59
2023-01-26T06:24:35.760Z,100635.03
2023-01-26T06:25:11.803Z,100633.94
2023-01-26T06:25:47.750Z,100629.31
2023-01-26T06:26:23.659Z,100635.28
2023-01-26T06:26:59.080Z,100633.94
2023-01-26T06:27:35.436Z,100629.31
2023-01-26T06:28:11.127Z,100626.84
2023-01-26T06:28:46.320Z,100631.75
2023-01-26T06:29:22.464Z,100630.41
2023-01-26T06:29:58.180Z,100632.84
2023-01-26T06:30:35.327Z,100634.50
2023-01-26T06:31:11.526Z,100629.31
2023-01-26T06:31:47.168Z,100632.59
2023-01-26T06:32:22.824Z,100633.13
2023-01-26T06:33:00.131Z,100635.03
2023-01-26T06:33:35.532Z,100630.13
2023-01-26T06:34:11.042Z,100633.94
2023-01-26T06:34:46.662Z,100632.03
2023-01-26T06:35:22.859Z,100632.59
2023-01-26T06:35:58.387Z,100627.13
2023-01-26T06:36:34.493Z,100633.41
2023-01-26T06:37:10.808Z,100628.78
2023-01-26T06:37:46.378Z,100629.59
2023-01-26T06:38:22.692Z,100626.84
2023-01-26T06:39:00.525Z,100626.56
2023-01-26T06:39:35.460Z,100629.84
2023-01-26T06:40:12.087Z,100635.28
2023-01-26T06:40:48.220Z,100633.94
2023-01-26T06:41:24.211Z,100632.56
2023-01-26T06:42:00.701Z,100627.94
2023-01-26T06:42:36.611Z,100635.28
2023-01-26T06:43:12.635Z,100633.91
2023-01-26T06:43:48.221Z,100631.19
2023-01-26T06:44:24.052Z,100637.75
2023-01-26T06:44:59.707Z,100639.66
2023-01-26T06:45:39.967Z,100639.38
2023-01-26T06:46:15.940Z,100639.09
2023-01-26T06:46:51.751Z,100641.28
2023-01-26T06:47:27.196Z,100644.53
2023-01-26T06:48:03.022Z,100651.34
2023-01-26T06:48:38.793Z,100635.28
2023-01-26T06:49:15.204Z,100644.53
2023-01-26T06:49:51.606Z,100646.72